sensor_id;sensor_type;location;lat;lon;timestamp;P1;durP1;ratioP1;P2;durP2;ratioP2
41923;SDS011;27613;48.116;11.656;2023-05-07T00:01:32;12.32;;;4.97;;
41923;SDS011;27613;48.116;11.656;2023-05-07T00:03:58;5.07;;;4.03;;
41923;SDS011;27613;48.116;11.656;2023-05-07T00:06:23;5.45;;;3.97;;
41923;SDS011;27613;48.116;11.656;2023-05-07T00:08:50;7.68;;;4.00;;
41923;SDS011;27613;48.116;11.656;2023-05-07T00:11:16;5.55;;;4.15;;
41923;SDS011;27613;48.116;11.656;2023-05-07T00:13:41;9.05;;;4.18;;
41923;SDS011;27613;48.116;11.656;2023-05-07T00:16:07;8.55;;;4.00;;
41923;SDS011;27613;48.116;11.656;2023-05-07T00:18:32;14.18;;;4.60;;
41923;SDS011;27613;48.116;11.656;2023-05-07T00:20:58;7.97;;;4.60;;
41923;SDS011;27613;48.116;11.656;2023-05-07T00:23:23;6.47;;;4.47;;
41923;SDS011;27613;48.116;11.656;2023-05-07T00:25:49;8.45;;;4.40;;
41923;SDS011;27613;48.116;11.656;2023-05-07T00:28:14;6.35;;;4.20;;
41923;SDS011;27613;48.116;11.656;2023-05-07T00:30:40;6.90;;;4.20;;
41923;SDS011;27613;48.116;11.656;2023-05-07T00:33:05;9.38;;;4.45;;
41923;SDS011;27613;48.116;11.656;2023-05-07T00:35:31;7.88;;;4.78;;
41923;SDS011;27613;48.116;11.656;2023-05-07T00:37:57;8.00;;;4.70;;
41923;SDS011;27613;48.116;11.656;2023-05-07T00:40:22;5.22;;;4.47;;
41923;SDS011;27613;48.116;11.656;2023-05-07T00:42:48;13.52;;;4.78;;
41923;SDS011;27613;48.116;11.656;2023-05-07T00:45:14;6.28;;;5.07;;
41923;SDS011;27613;48.116;11.656;2023-05-07T00:47:41;4.00;;;3.60;;
41923;SDS011;27613;48.116;11.656;2023-05-07T00:50:07;6.00;;;4.18;;
41923;SDS011;27613;48.116;11.656;2023-05-07T00:52:36;7.25;;;4.65;;
41923;SDS011;27613;48.116;11.656;2023-05-07T00:55:04;6.40;;;4.47;;
41923;SDS011;27613;48.116;11.656;2023-05-07T00:57:37;5.15;;;4.25;;
41923;SDS011;27613;48.116;11.656;2023-05-07T01:00:07;6.25;;;4.72;;
41923;SDS011;27613;48.116;11.656;2023-05-07T01:02:35;6.85;;;4.57;;
41923;SDS011;27613;48.116;11.656;2023-05-07T01:05:01;5.40;;;3.90;;
41923;SDS011;27613;48.116;11.656;2023-05-07T01:07:28;5.97;;;4.60;;
41923;SDS011;27613;48.116;11.656;2023-05-07T01:09:54;6.47;;;5.03;;
41923;SDS011;27613;48.116;11.656;2023-05-07T01:12:20;8.82;;;5.00;;
41923;SDS011;27613;48.116;11.656;2023-05-07T01:14:46;6.32;;;4.30;;
41923;SDS011;27613;48.116;11.656;2023-05-07T01:17:13;8.23;;;5.28;;
41923;SDS011;27613;48.116;11.656;2023-05-07T01:19:39;7.07;;;4.78;;
41923;SDS011;27613;48.116;11.656;2023-05-07T01:22:08;7.32;;;4.35;;
41923;SDS011;27613;48.116;11.656;2023-05-07T01:24:36;7.15;;;4.72;;
41923;SDS011;27613;48.116;11.656;2023-05-07T01:27:02;6.97;;;4.93;;
41923;SDS011;27613;48.116;11.656;2023-05-07T01:29:28;9.18;;;4.88;;
41923;SDS011;27613;48.116;11.656;2023-05-07T01:31:54;5.07;;;4.32;;
41923;SDS011;27613;48.116;11.656;2023-05-07T01:34:23;6.25;;;4.43;;
41923;SDS011;27613;48.116;11.656;2023-05-07T01:36:52;4.80;;;4.03;;
41923;SDS011;27613;48.116;11.656;2023-05-07T01:39:20;5.47;;;4.30;;
41923;SDS011;27613;48.116;11.656;2023-05-07T01:41:48;5.75;;;3.90;;
41923;SDS011;27613;48.116;11.656;2023-05-07T01:44:14;6.05;;;4.07;;
41923;SDS011;27613;48.116;11.656;2023-05-07T01:46:41;24.95;;;4.50;;
41923;SDS011;27613;48.116;11.656;2023-05-07T01:49:07;5.43;;;4.40;;
41923;SDS011;27613;48.116;11.656;2023-05-07T01:51:32;5.13;;;3.95;;
41923;SDS011;27613;48.116;11.656;2023-05-07T01:53:59;5.20;;;4.13;;
41923;SDS011;27613;48.116;11.656;2023-05-07T01:56:25;7.00;;;4.22;;
41923;SDS011;27613;48.116;11.656;2023-05-07T01:58:50;8.70;;;4.20;;
41923;SDS011;27613;48.116;11.656;2023-05-07T02:01:17;6.57;;;4.30;;
41923;SDS011;27613;48.116;11.656;2023-05-07T02:03:43;7.10;;;4.47;;
41923;SDS011;27613;48.116;11.656;2023-05-07T02:06:08;5.38;;;4.15;;
41923;SDS011;27613;48.116;11.656;2023-05-07T02:08:34;7.18;;;4.50;;
41923;SDS011;27613;48.116;11.656;2023-05-07T02:11:00;7.53;;;5.10;;
41923;SDS011;27613;48.116;11.656;2023-05-07T02:13:28;5.18;;;4.22;;
41923;SDS011;27613;48.116;11.656;2023-05-07T02:15:55;5.55;;;4.43;;
41923;SDS011;27613;48.116;11.656;2023-05-07T02:18:20;10.73;;;4.28;;
41923;SDS011;27613;48.116;11.656;2023-05-07T02:20:46;5.72;;;3.85;;
41923;SDS011;27613;48.116;11.656;2023-05-07T02:23:11;6.03;;;4.30;;
41923;SDS011;27613;48.116;11.656;2023-05-07T02:25:37;8.88;;;3.97;;
41923;SDS011;27613;48.116;11.656;2023-05-07T02:28:03;9.05;;;4.15;;
41923;SDS011;27613;48.116;11.656;2023-05-07T02:30:29;5.45;;;3.80;;
41923;SDS011;27613;48.116;11.656;2023-05-07T02:32:54;6.85;;;3.78;;
41923;SDS011;27613;48.116;11.656;2023-05-07T02:35:20;5.88;;;3.90;;
41923;SDS011;27613;48.116;11.656;2023-05-07T02:37:45;8.73;;;4.07;;
41923;SDS011;27613;48.116;11.656;2023-05-07T02:40:11;6.55;;;3.55;;
41923;SDS011;27613;48.116;11.656;2023-05-07T02:42:37;6.68;;;3.58;;
41923;SDS011;27613;48.116;11.656;2023-05-07T02:45:03;5.68;;;3.92;;
41923;SDS011;27613;48.116;11.656;2023-05-07T02:47:28;5.63;;;3.83;;
41923;SDS011;27613;48.116;11.656;2023-05-07T02:49:54;7.85;;;4.47;;
41923;SDS011;27613;48.116;11.656;2023-05-07T02:52:20;6.03;;;3.63;;
41923;SDS011;27613;48.116;11.656;2023-05-07T02:54:46;5.25;;;3.90;;
41923;SDS011;27613;48.116;11.656;2023-05-07T02:57:12;5.65;;;3.83;;
41923;SDS011;27613;48.116;11.656;2023-05-07T02:59:37;6.65;;;3.60;;
41923;SDS011;27613;48.116;11.656;2023-05-07T03:02:03;6.63;;;4.22;;
41923;SDS011;27613;48.116;11.656;2023-05-07T03:04:28;4.32;;;3.10;;
41923;SDS011;27613;48.116;11.656;2023-05-07T03:06:54;5.70;;;3.75;;
41923;SDS011;27613;48.116;11.656;2023-05-07T03:09:20;5.55;;;3.75;;
41923;SDS011;27613;48.116;11.656;2023-05-07T03:11:45;5.55;;;3.70;;
41923;SDS011;27613;48.116;11.656;2023-05-07T03:14:11;3.90;;;3.30;;
41923;SDS011;27613;48.116;11.656;2023-05-07T03:16:37;10.30;;;4.28;;
41923;SDS011;27613;48.116;11.656;2023-05-07T03:19:03;4.50;;;3.50;;
41923;SDS011;27613;48.116;11.656;2023-05-07T03:21:28;7.40;;;3.88;;
41923;SDS011;27613;48.116;11.656;2023-05-07T03:23:55;7.75;;;3.67;;
41923;SDS011;27613;48.116;11.656;2023-05-07T03:26:21;4.50;;;3.60;;
41923;SDS011;27613;48.116;11.656;2023-05-07T03:28:47;4.45;;;3.50;;
41923;SDS011;27613;48.116;11.656;2023-05-07T03:31:12;4.20;;;3.22;;
41923;SDS011;27613;48.116;11.656;2023-05-07T03:33:42;5.88;;;3.55;;
41923;SDS011;27613;48.116;11.656;2023-05-07T03:36:17;4.38;;;3.33;;
41923;SDS011;27613;48.116;11.656;2023-05-07T03:38:43;4.88;;;3.83;;
41923;SDS011;27613;48.116;11.656;2023-05-07T03:41:09;7.43;;;4.30;;
41923;SDS011;27613;48.116;11.656;2023-05-07T03:43:35;5.35;;;3.67;;
41923;SDS011;27613;48.116;11.656;2023-05-07T03:46:00;5.57;;;3.25;;
41923;SDS011;27613;48.116;11.656;2023-05-07T03:48:26;5.25;;;3.40;;
41923;SDS011;27613;48.116;11.656;2023-05-07T03:50:51;5.28;;;3.50;;
41923;SDS011;27613;48.116;11.656;2023-05-07T03:53:17;4.43;;;3.40;;
41923;SDS011;27613;48.116;11.656;2023-05-07T03:55:42;6.93;;;3.80;;
41923;SDS011;27613;48.116;11.656;2023-05-07T03:58:08;4.38;;;3.33;;
41923;SDS011;27613;48.116;11.656;2023-05-07T04:00:33;6.18;;;3.25;;
41923;SDS011;27613;48.116;11.656;2023-05-07T04:03:03;5.57;;;3.50;;
41923;SDS011;27613;48.116;11.656;2023-05-07T04:05:29;5.43;;;3.60;;
41923;SDS011;27613;48.116;11.656;2023-05-07T04:07:55;3.85;;;2.80;;
41923;SDS011;27613;48.116;11.656;2023-05-07T04:10:21;4.85;;;3.40;;
41923;SDS011;27613;48.116;11.656;2023-05-07T04:12:46;6.55;;;3.33;;
41923;SDS011;27613;48.116;11.656;2023-05-07T04:15:12;6.30;;;3.40;;
41923;SDS011;27613;48.116;11.656;2023-05-07T04:17:37;8.63;;;3.70;;
41923;SDS011;27613;48.116;11.656;2023-05-07T04:20:03;3.95;;;2.97;;
41923;SDS011;27613;48.116;11.656;2023-05-07T04:22:29;5.90;;;3.33;;
41923;SDS011;27613;48.116;11.656;2023-05-07T04:24:55;4.78;;;3.20;;
41923;SDS011;27613;48.116;11.656;2023-05-07T04:27:21;5.15;;;3.75;;
41923;SDS011;27613;48.116;11.656;2023-05-07T04:29:46;3.83;;;3.00;;
41923;SDS011;27613;48.116;11.656;2023-05-07T04:32:12;4.22;;;3.25;;
41923;SDS011;27613;48.116;11.656;2023-05-07T04:34:38;5.53;;;3.50;;
41923;SDS011;27613;48.116;11.656;2023-05-07T04:37:03;4.57;;;3.70;;
41923;SDS011;27613;48.116;11.656;2023-05-07T04:39:29;5.25;;;3.33;;
41923;SDS011;27613;48.116;11.656;2023-05-07T04:41:54;6.00;;;3.60;;
41923;SDS011;27613;48.116;11.656;2023-05-07T04:44:20;4.40;;;3.60;;
41923;SDS011;27613;48.116;11.656;2023-05-07T04:46:46;4.38;;;3.22;;
41923;SDS011;27613;48.116;11.656;2023-05-07T04:49:11;5.20;;;3.50;;
41923;SDS011;27613;48.116;11.656;2023-05-07T04:51:37;5.68;;;3.72;;
41923;SDS011;27613;48.116;11.656;2023-05-07T04:54:03;5.28;;;3.42;;
41923;SDS011;27613;48.116;11.656;2023-05-07T04:56:29;7.80;;;3.38;;
41923;SDS011;27613;48.116;11.656;2023-05-07T04:58:57;5.18;;;3.17;;
41923;SDS011;27613;48.116;11.656;2023-05-07T05:01:22;4.50;;;3.28;;
41923;SDS011;27613;48.116;11.656;2023-05-07T05:03:48;4.40;;;3.38;;
41923;SDS011;27613;48.116;11.656;2023-05-07T05:06:13;5.45;;;3.30;;
41923;SDS011;27613;48.116;11.656;2023-05-07T05:08:39;4.70;;;3.05;;
41923;SDS011;27613;48.116;11.656;2023-05-07T05:11:04;4.85;;;3.30;;
41923;SDS011;27613;48.116;11.656;2023-05-07T05:13:30;3.80;;;3.08;;
41923;SDS011;27613;48.116;11.656;2023-05-07T05:15:56;4.57;;;3.25;;
41923;SDS011;27613;48.116;11.656;2023-05-07T05:18:21;5.35;;;3.13;;
41923;SDS011;27613;48.116;11.656;2023-05-07T05:20:47;8.35;;;3.10;;
41923;SDS011;27613;48.116;11.656;2023-05-07T05:23:12;4.45;;;3.08;;
41923;SDS011;27613;48.116;11.656;2023-05-07T05:25:38;4.30;;;3.13;;
41923;SDS011;27613;48.116;11.656;2023-05-07T05:28:05;4.63;;;2.95;;
41923;SDS011;27613;48.116;11.656;2023-05-07T05:30:30;3.40;;;2.90;;
41923;SDS011;27613;48.116;11.656;2023-05-07T05:32:56;6.05;;;3.22;;
41923;SDS011;27613;48.116;11.656;2023-05-07T05:35:21;5.18;;;2.90;;
41923;SDS011;27613;48.116;11.656;2023-05-07T05:37:47;5.00;;;3.13;;
41923;SDS011;27613;48.116;11.656;2023-05-07T05:40:13;4.75;;;3.53;;
41923;SDS011;27613;48.116;11.656;2023-05-07T05:42:38;5.30;;;3.33;;
41923;SDS011;27613;48.116;11.656;2023-05-07T05:45:04;3.90;;;2.92;;
41923;SDS011;27613;48.116;11.656;2023-05-07T05:47:30;4.45;;;3.25;;
41923;SDS011;27613;48.116;11.656;2023-05-07T05:49:56;6.22;;;2.92;;
41923;SDS011;27613;48.116;11.656;2023-05-07T05:52:21;4.95;;;3.17;;
41923;SDS011;27613;48.116;11.656;2023-05-07T05:54:48;4.65;;;3.17;;
41923;SDS011;27613;48.116;11.656;2023-05-07T05:57:14;4.50;;;2.60;;
41923;SDS011;27613;48.116;11.656;2023-05-07T05:59:40;5.90;;;3.83;;
41923;SDS011;27613;48.116;11.656;2023-05-07T06:02:06;4.07;;;3.17;;
41923;SDS011;27613;48.116;11.656;2023-05-07T06:04:32;3.65;;;3.20;;
41923;SDS011;27613;48.116;11.656;2023-05-07T06:06:57;4.38;;;3.00;;
41923;SDS011;27613;48.116;11.656;2023-05-07T06:09:23;8.73;;;3.15;;
41923;SDS011;27613;48.116;11.656;2023-05-07T06:11:48;5.90;;;3.47;;
41923;SDS011;27613;48.116;11.656;2023-05-07T06:14:14;5.47;;;3.33;;
41923;SDS011;27613;48.116;11.656;2023-05-07T06:16:40;5.45;;;3.60;;
41923;SDS011;27613;48.116;11.656;2023-05-07T06:19:06;7.07;;;3.88;;
41923;SDS011;27613;48.116;11.656;2023-05-07T06:21:32;6.90;;;3.38;;
41923;SDS011;27613;48.116;11.656;2023-05-07T06:23:57;4.95;;;3.10;;
41923;SDS011;27613;48.116;11.656;2023-05-07T06:26:23;4.10;;;2.95;;
41923;SDS011;27613;48.116;11.656;2023-05-07T06:28:48;5.72;;;3.00;;
41923;SDS011;27613;48.116;11.656;2023-05-07T06:31:15;5.18;;;3.10;;
41923;SDS011;27613;48.116;11.656;2023-05-07T06:33:41;5.28;;;3.00;;
41923;SDS011;27613;48.116;11.656;2023-05-07T06:36:08;6.05;;;2.75;;
41923;SDS011;27613;48.116;11.656;2023-05-07T06:38:33;3.70;;;2.40;;
41923;SDS011;27613;48.116;11.656;2023-05-07T06:40:59;5.85;;;2.70;;
41923;SDS011;27613;48.116;11.656;2023-05-07T06:43:24;5.97;;;2.70;;
41923;SDS011;27613;48.116;11.656;2023-05-07T06:45:50;3.17;;;2.00;;
41923;SDS011;27613;48.116;11.656;2023-05-07T06:48:15;4.07;;;2.40;;
41923;SDS011;27613;48.116;11.656;2023-05-07T06:50:41;4.60;;;2.30;;
41923;SDS011;27613;48.116;11.656;2023-05-07T06:53:07;4.00;;;2.38;;
41923;SDS011;27613;48.116;11.656;2023-05-07T06:55:32;4.18;;;2.38;;
41923;SDS011;27613;48.116;11.656;2023-05-07T06:57:58;4.55;;;2.40;;
41923;SDS011;27613;48.116;11.656;2023-05-07T07:00:26;5.35;;;2.35;;
41923;SDS011;27613;48.116;11.656;2023-05-07T07:02:52;3.65;;;2.22;;
41923;SDS011;27613;48.116;11.656;2023-05-07T07:05:18;3.95;;;2.30;;
41923;SDS011;27613;48.116;11.656;2023-05-07T07:07:44;4.38;;;2.25;;
41923;SDS011;27613;48.116;11.656;2023-05-07T07:10:17;3.50;;;2.10;;
41923;SDS011;27613;48.116;11.656;2023-05-07T07:12:46;2.88;;;2.00;;
41923;SDS011;27613;48.116;11.656;2023-05-07T07:15:12;5.45;;;2.03;;
41923;SDS011;27613;48.116;11.656;2023-05-07T07:17:38;6.45;;;2.33;;
41923;SDS011;27613;48.116;11.656;2023-05-07T07:20:04;5.95;;;2.25;;
41923;SDS011;27613;48.116;11.656;2023-05-07T07:22:30;3.63;;;2.00;;
41923;SDS011;27613;48.116;11.656;2023-05-07T07:24:56;3.90;;;1.88;;
41923;SDS011;27613;48.116;11.656;2023-05-07T07:27:21;3.15;;;1.90;;
41923;SDS011;27613;48.116;11.656;2023-05-07T07:29:47;2.60;;;1.73;;
41923;SDS011;27613;48.116;11.656;2023-05-07T07:32:12;3.47;;;2.00;;
41923;SDS011;27613;48.116;11.656;2023-05-07T07:34:38;3.60;;;2.25;;
41923;SDS011;27613;48.116;11.656;2023-05-07T07:37:03;6.20;;;2.00;;
41923;SDS011;27613;48.116;11.656;2023-05-07T07:39:31;3.85;;;2.00;;
41923;SDS011;27613;48.116;11.656;2023-05-07T07:41:57;4.70;;;1.90;;
41923;SDS011;27613;48.116;11.656;2023-05-07T07:44:22;8.38;;;2.08;;
41923;SDS011;27613;48.116;11.656;2023-05-07T07:46:48;3.30;;;2.00;;
41923;SDS011;27613;48.116;11.656;2023-05-07T07:49:14;3.30;;;1.85;;
41923;SDS011;27613;48.116;11.656;2023-05-07T07:51:40;3.55;;;2.33;;
41923;SDS011;27613;48.116;11.656;2023-05-07T07:54:05;3.88;;;2.10;;
41923;SDS011;27613;48.116;11.656;2023-05-07T07:56:32;2.75;;;1.85;;
41923;SDS011;27613;48.116;11.656;2023-05-07T07:58:58;4.10;;;2.17;;
41923;SDS011;27613;48.116;11.656;2023-05-07T08:01:24;4.32;;;2.03;;
41923;SDS011;27613;48.116;11.656;2023-05-07T08:03:49;3.97;;;2.20;;
41923;SDS011;27613;48.116;11.656;2023-05-07T08:06:15;3.75;;;2.10;;
41923;SDS011;27613;48.116;11.656;2023-05-07T08:08:40;4.32;;;2.35;;
41923;SDS011;27613;48.116;11.656;2023-05-07T08:11:06;9.77;;;2.47;;
41923;SDS011;27613;48.116;11.656;2023-05-07T08:13:32;3.58;;;2.10;;
41923;SDS011;27613;48.116;11.656;2023-05-07T08:15:57;4.13;;;2.50;;
41923;SDS011;27613;48.116;11.656;2023-05-07T08:18:24;4.32;;;2.50;;
41923;SDS011;27613;48.116;11.656;2023-05-07T08:20:50;3.63;;;2.03;;
41923;SDS011;27613;48.116;11.656;2023-05-07T08:23:16;3.58;;;2.28;;
41923;SDS011;27613;48.116;11.656;2023-05-07T08:25:42;4.95;;;1.90;;
41923;SDS011;27613;48.116;11.656;2023-05-07T08:28:07;4.80;;;2.60;;
41923;SDS011;27613;48.116;11.656;2023-05-07T08:30:33;7.40;;;2.40;;
41923;SDS011;27613;48.116;11.656;2023-05-07T08:32:59;3.72;;;2.33;;
41923;SDS011;27613;48.116;11.656;2023-05-07T08:35:25;3.60;;;2.30;;
41923;SDS011;27613;48.116;11.656;2023-05-07T08:37:51;4.82;;;2.40;;
41923;SDS011;27613;48.116;11.656;2023-05-07T08:40:17;8.52;;;2.22;;
41923;SDS011;27613;48.116;11.656;2023-05-07T08:42:43;3.80;;;2.08;;
41923;SDS011;27613;48.116;11.656;2023-05-07T08:45:10;4.53;;;2.25;;
41923;SDS011;27613;48.116;11.656;2023-05-07T08:47:43;3.50;;;1.80;;
41923;SDS011;27613;48.116;11.656;2023-05-07T08:50:11;4.97;;;2.00;;
41923;SDS011;27613;48.116;11.656;2023-05-07T08:52:37;3.35;;;2.00;;
41923;SDS011;27613;48.116;11.656;2023-05-07T08:55:03;3.05;;;1.75;;
41923;SDS011;27613;48.116;11.656;2023-05-07T08:57:30;5.07;;;1.98;;
41923;SDS011;27613;48.116;11.656;2023-05-07T08:59:55;7.60;;;1.83;;
41923;SDS011;27613;48.116;11.656;2023-05-07T09:02:21;3.55;;;1.52;;
41923;SDS011;27613;48.116;11.656;2023-05-07T09:04:47;3.40;;;1.60;;
41923;SDS011;27613;48.116;11.656;2023-05-07T09:07:12;5.55;;;1.85;;
41923;SDS011;27613;48.116;11.656;2023-05-07T09:09:38;2.45;;;1.42;;
41923;SDS011;27613;48.116;11.656;2023-05-07T09:12:04;4.63;;;1.70;;
41923;SDS011;27613;48.116;11.656;2023-05-07T09:14:29;2.53;;;1.33;;
41923;SDS011;27613;48.116;11.656;2023-05-07T09:16:55;9.05;;;1.77;;
41923;SDS011;27613;48.116;11.656;2023-05-07T09:19:25;4.03;;;1.80;;
41923;SDS011;27613;48.116;11.656;2023-05-07T09:22:01;2.20;;;1.10;;
41923;SDS011;27613;48.116;11.656;2023-05-07T09:24:28;4.47;;;1.52;;
41923;SDS011;27613;48.116;11.656;2023-05-07T09:26:58;2.30;;;1.40;;
41923;SDS011;27613;48.116;11.656;2023-05-07T09:29:26;2.05;;;1.17;;
41923;SDS011;27613;48.116;11.656;2023-05-07T09:31:53;2.05;;;1.10;;
41923;SDS011;27613;48.116;11.656;2023-05-07T09:34:19;7.13;;;1.38;;
41923;SDS011;27613;48.116;11.656;2023-05-07T09:36:45;2.80;;;1.15;;
41923;SDS011;27613;48.116;11.656;2023-05-07T09:39:11;1.83;;;1.17;;
41923;SDS011;27613;48.116;11.656;2023-05-07T09:41:44;2.22;;;1.15;;
41923;SDS011;27613;48.116;11.656;2023-05-07T09:44:14;2.28;;;1.40;;
41923;SDS011;27613;48.116;11.656;2023-05-07T09:46:41;2.47;;;1.42;;
41923;SDS011;27613;48.116;11.656;2023-05-07T09:49:12;2.15;;;1.33;;
41923;SDS011;27613;48.116;11.656;2023-05-07T09:51:48;1.92;;;1.20;;
41923;SDS011;27613;48.116;11.656;2023-05-07T09:54:16;3.08;;;1.20;;
41923;SDS011;27613;48.116;11.656;2023-05-07T09:56:42;2.25;;;1.20;;
41923;SDS011;27613;48.116;11.656;2023-05-07T09:59:13;2.75;;;1.30;;
41923;SDS011;27613;48.116;11.656;2023-05-07T10:01:40;2.15;;;1.20;;
41923;SDS011;27613;48.116;11.656;2023-05-07T10:04:07;4.03;;;1.30;;
41923;SDS011;27613;48.116;11.656;2023-05-07T10:06:34;2.03;;;1.33;;
41923;SDS011;27613;48.116;11.656;2023-05-07T10:09:00;1.45;;;1.10;;
41923;SDS011;27613;48.116;11.656;2023-05-07T10:11:27;2.13;;;1.20;;
41923;SDS011;27613;48.116;11.656;2023-05-07T10:13:53;1.23;;;1.00;;
41923;SDS011;27613;48.116;11.656;2023-05-07T10:16:19;2.58;;;1.30;;
41923;SDS011;27613;48.116;11.656;2023-05-07T10:18:46;1.98;;;1.20;;
41923;SDS011;27613;48.116;11.656;2023-05-07T10:21:17;2.53;;;1.00;;
41923;SDS011;27613;48.116;11.656;2023-05-07T10:23:51;1.80;;;0.90;;
41923;SDS011;27613;48.116;11.656;2023-05-07T10:26:22;2.70;;;1.20;;
41923;SDS011;27613;48.116;11.656;2023-05-07T10:28:56;1.77;;;1.08;;
41923;SDS011;27613;48.116;11.656;2023-05-07T10:33:52;1.83;;;0.95;;
41923;SDS011;27613;48.116;11.656;2023-05-07T10:36:20;3.03;;;1.10;;
41923;SDS011;27613;48.116;11.656;2023-05-07T10:38:46;1.92;;;0.98;;
41923;SDS011;27613;48.116;11.656;2023-05-07T10:41:12;2.53;;;1.20;;
41923;SDS011;27613;48.116;11.656;2023-05-07T10:43:41;2.15;;;1.13;;
41923;SDS011;27613;48.116;11.656;2023-05-07T10:56:49;2.35;;;1.20;;
41923;SDS011;27613;48.116;11.656;2023-05-07T11:04:27;2.95;;;1.40;;
41923;SDS011;27613;48.116;11.656;2023-05-07T11:12:45;2.85;;;1.48;;
41923;SDS011;27613;48.116;11.656;2023-05-07T11:15:06;4.35;;;1.55;;
41923;SDS011;27613;48.116;11.656;2023-05-07T11:17:34;2.47;;;1.40;;
41923;SDS011;27613;48.116;11.656;2023-05-07T11:20:00;2.13;;;1.27;;
41923;SDS011;27613;48.116;11.656;2023-05-07T11:24:56;2.42;;;1.48;;
41923;SDS011;27613;48.116;11.656;2023-05-07T11:27:26;3.08;;;1.58;;
41923;SDS011;27613;48.116;11.656;2023-05-07T11:29:51;2.35;;;1.48;;
41923;SDS011;27613;48.116;11.656;2023-05-07T11:32:24;2.90;;;1.58;;
41923;SDS011;27613;48.116;11.656;2023-05-07T11:34:52;2.10;;;1.60;;
41923;SDS011;27613;48.116;11.656;2023-05-07T11:37:19;3.60;;;1.80;;
41923;SDS011;27613;48.116;11.656;2023-05-07T11:39:45;2.63;;;1.67;;
41923;SDS011;27613;48.116;11.656;2023-05-07T11:42:30;2.80;;;1.73;;
41923;SDS011;27613;48.116;11.656;2023-05-07T11:44:59;3.08;;;1.83;;
41923;SDS011;27613;48.116;11.656;2023-05-07T11:47:25;7.30;;;1.63;;
41923;SDS011;27613;48.116;11.656;2023-05-07T11:49:54;3.00;;;1.88;;
41923;SDS011;27613;48.116;11.656;2023-05-07T11:52:20;3.65;;;1.70;;
41923;SDS011;27613;48.116;11.656;2023-05-07T11:54:51;3.00;;;1.80;;
41923;SDS011;27613;48.116;11.656;2023-05-07T11:57:20;3.30;;;1.80;;
41923;SDS011;27613;48.116;11.656;2023-05-07T11:59:46;2.72;;;1.65;;
41923;SDS011;27613;48.116;11.656;2023-05-07T12:02:13;2.85;;;1.70;;
41923;SDS011;27613;48.116;11.656;2023-05-07T12:04:40;2.63;;;1.58;;
41923;SDS011;27613;48.116;11.656;2023-05-07T12:07:15;2.95;;;1.77;;
41923;SDS011;27613;48.116;11.656;2023-05-07T12:09:41;3.03;;;1.70;;
41923;SDS011;27613;48.116;11.656;2023-05-07T12:12:07;3.45;;;1.85;;
41923;SDS011;27613;48.116;11.656;2023-05-07T12:14:37;5.60;;;2.05;;
41923;SDS011;27613;48.116;11.656;2023-05-07T12:17:13;3.33;;;1.70;;
41923;SDS011;27613;48.116;11.656;2023-05-07T12:19:40;2.38;;;1.65;;
41923;SDS011;27613;48.116;11.656;2023-05-07T12:22:07;3.30;;;1.80;;
41923;SDS011;27613;48.116;11.656;2023-05-07T12:24:47;2.88;;;1.60;;
41923;SDS011;27613;48.116;11.656;2023-05-07T12:27:14;3.58;;;1.60;;
41923;SDS011;27613;48.116;11.656;2023-05-07T12:29:45;2.80;;;1.40;;
41923;SDS011;27613;48.116;11.656;2023-05-07T12:32:16;2.50;;;1.47;;
41923;SDS011;27613;48.116;11.656;2023-05-07T12:34:43;3.15;;;1.60;;
41923;SDS011;27613;48.116;11.656;2023-05-07T12:37:09;1.85;;;1.02;;
41923;SDS011;27613;48.116;11.656;2023-05-07T12:39:35;3.38;;;1.60;;
41923;SDS011;27613;48.116;11.656;2023-05-07T12:42:01;2.33;;;1.33;;
41923;SDS011;27613;48.116;11.656;2023-05-07T12:44:30;2.75;;;1.50;;
41923;SDS011;27613;48.116;11.656;2023-05-07T12:46:57;2.47;;;1.40;;
41923;SDS011;27613;48.116;11.656;2023-05-07T12:49:23;2.67;;;1.42;;
41923;SDS011;27613;48.116;11.656;2023-05-07T12:51:48;3.22;;;1.40;;
41923;SDS011;27613;48.116;11.656;2023-05-07T12:54:27;1.90;;;1.20;;
41923;SDS011;27613;48.116;11.656;2023-05-07T12:57:06;3.15;;;1.63;;
41923;SDS011;27613;48.116;11.656;2023-05-07T12:59:33;1.98;;;1.15;;
41923;SDS011;27613;48.116;11.656;2023-05-07T13:02:00;3.58;;;1.50;;
41923;SDS011;27613;48.116;11.656;2023-05-07T13:04:26;3.72;;;1.40;;
41923;SDS011;27613;48.116;11.656;2023-05-07T13:06:51;4.03;;;1.40;;
41923;SDS011;27613;48.116;11.656;2023-05-07T13:09:17;2.67;;;1.60;;
41923;SDS011;27613;48.116;11.656;2023-05-07T13:11:42;1.48;;;1.10;;
41923;SDS011;27613;48.116;11.656;2023-05-07T13:14:08;3.67;;;1.52;;
41923;SDS011;27613;48.116;11.656;2023-05-07T13:16:33;1.73;;;1.17;;
41923;SDS011;27613;48.116;11.656;2023-05-07T13:18:59;2.95;;;1.42;;
41923;SDS011;27613;48.116;11.656;2023-05-07T13:21:24;6.07;;;1.70;;
41923;SDS011;27613;48.116;11.656;2023-05-07T13:23:51;4.15;;;1.33;;
41923;SDS011;27613;48.116;11.656;2023-05-07T13:26:17;2.72;;;1.52;;
41923;SDS011;27613;48.116;11.656;2023-05-07T13:28:43;2.28;;;1.30;;
41923;SDS011;27613;48.116;11.656;2023-05-07T13:31:09;3.75;;;1.73;;
41923;SDS011;27613;48.116;11.656;2023-05-07T13:33:34;6.20;;;2.25;;
41923;SDS011;27613;48.116;11.656;2023-05-07T13:36:00;3.08;;;1.55;;
41923;SDS011;27613;48.116;11.656;2023-05-07T13:38:28;7.70;;;1.60;;
41923;SDS011;27613;48.116;11.656;2023-05-07T13:40:54;2.45;;;1.50;;
41923;SDS011;27613;48.116;11.656;2023-05-07T13:43:20;3.90;;;1.60;;
41923;SDS011;27613;48.116;11.656;2023-05-07T13:45:45;3.03;;;1.58;;
41923;SDS011;27613;48.116;11.656;2023-05-07T13:48:11;2.72;;;1.50;;
41923;SDS011;27613;48.116;11.656;2023-05-07T13:50:36;2.47;;;1.30;;
41923;SDS011;27613;48.116;11.656;2023-05-07T13:53:02;6.97;;;1.20;;
41923;SDS011;27613;48.116;11.656;2023-05-07T13:55:28;1.92;;;1.33;;
41923;SDS011;27613;48.116;11.656;2023-05-07T13:57:58;2.00;;;0.90;;
41923;SDS011;27613;48.116;11.656;2023-05-07T14:00:25;2.83;;;1.33;;
41923;SDS011;27613;48.116;11.656;2023-05-07T14:02:52;1.70;;;1.20;;
41923;SDS011;27613;48.116;11.656;2023-05-07T14:05:18;1.63;;;1.02;;
41923;SDS011;27613;48.116;11.656;2023-05-07T14:07:43;2.50;;;1.42;;
41923;SDS011;27613;48.116;11.656;2023-05-07T14:10:09;1.95;;;1.10;;
41923;SDS011;27613;48.116;11.656;2023-05-07T14:12:36;2.25;;;1.25;;
41923;SDS011;27613;48.116;11.656;2023-05-07T14:15:02;3.13;;;1.30;;
41923;SDS011;27613;48.116;11.656;2023-05-07T14:17:28;2.35;;;1.25;;
41923;SDS011;27613;48.116;11.656;2023-05-07T14:19:53;2.53;;;1.10;;
41923;SDS011;27613;48.116;11.656;2023-05-07T14:22:20;7.18;;;1.60;;
41923;SDS011;27613;48.116;11.656;2023-05-07T14:24:47;2.03;;;1.30;;
41923;SDS011;27613;48.116;11.656;2023-05-07T14:27:12;3.30;;;1.48;;
41923;SDS011;27613;48.116;11.656;2023-05-07T14:29:38;2.15;;;1.15;;
41923;SDS011;27613;48.116;11.656;2023-05-07T14:32:03;2.15;;;1.25;;
41923;SDS011;27613;48.116;11.656;2023-05-07T14:34:29;2.58;;;1.25;;
41923;SDS011;27613;48.116;11.656;2023-05-07T14:36:55;2.75;;;1.30;;
41923;SDS011;27613;48.116;11.656;2023-05-07T14:39:21;2.70;;;1.40;;
41923;SDS011;27613;48.116;11.656;2023-05-07T14:41:46;4.15;;;1.42;;
41923;SDS011;27613;48.116;11.656;2023-05-07T14:44:12;4.68;;;1.70;;
41923;SDS011;27613;48.116;11.656;2023-05-07T14:46:38;3.67;;;2.00;;
41923;SDS011;27613;48.116;11.656;2023-05-07T14:49:03;2.67;;;1.42;;
41923;SDS011;27613;48.116;11.656;2023-05-07T14:51:29;2.47;;;1.48;;
41923;SDS011;27613;48.116;11.656;2023-05-07T14:53:55;2.85;;;1.40;;
41923;SDS011;27613;48.116;11.656;2023-05-07T14:56:21;2.97;;;1.45;;